sensor_id;sensor_type;location;lat;lon;timestamp;pressure;altitude;pressure_sealevel;temperature;humidity
38912;BME280;28444;48.056;14.408;2023-06-04T00:02:16;97632.28;;;14.08;56.45
38912;BME280;28444;48.056;14.408;2023-06-04T00:05:03;97637.25;;;14.00;56.50
38912;BME280;28444;48.056;14.408;2023-06-04T00:07:51;97634.22;;;13.95;56.35
38912;BME280;28444;48.056;14.408;2023-06-04T00:10:38;97625.56;;;13.89;56.37
38912;BME280;28444;48.056;14.408;2023-06-04T00:13:27;97631.75;;;13.90;56.52
38912;BME280;28444;48.056;14.408;2023-06-04T00:16:14;97620.81;;;13.80;57.32
38912;BME280;28444;48.056;14.408;2023-06-04T00:19:01;97629.34;;;13.84;57.40
38912;BME280;28444;48.056;14.408;2023-06-04T00:21:49;97630.41;;;13.60;58.10
38912;BME280;28444;48.056;14.408;2023-06-04T00:24:37;97624.63;;;13.56;58.87
38912;BME280;28444;48.056;14.408;2023-06-04T00:27:25;97619.69;;;13.54;58.41
38912;BME280;28444;48.056;14.408;2023-06-04T00:30:12;97629.84;;;13.42;58.81
38912;BME280;28444;48.056;14.408;2023-06-04T00:33:01;97626.38;;;13.51;58.81
38912;BME280;28444;48.056;14.408;2023-06-04T00:35:48;97629.97;;;13.54;59.14
38912;BME280;28444;48.056;14.408;2023-06-04T00:38:35;97624.06;;;13.47;58.99
38912;BME280;28444;48.056;14.408;2023-06-04T00:41:22;97624.34;;;13.52;58.99
38912;BME280;28444;48.056;14.408;2023-06-04T00:44:09;97621.59;;;13.52;58.65
38912;BME280;28444;48.056;14.408;2023-06-04T00:46:56;97622.44;;;13.54;58.83
38912;BME280;28444;48.056;14.408;2023-06-04T00:49:43;97623.63;;;13.51;58.29
38912;BME280;28444;48.056;14.408;2023-06-04T00:52:30;97623.31;;;13.47;58.77
38912;BME280;28444;48.056;14.408;2023-06-04T00:55:17;97620.28;;;13.43;59.31
38912;BME280;28444;48.056;14.408;2023-06-04T00:58:05;97616.28;;;13.34;58.78
38912;BME280;28444;48.056;14.408;2023-06-04T01:00:54;97615.41;;;13.41;58.96
38912;BME280;28444;48.056;14.408;2023-06-04T01:03:46;97618.41;;;13.36;59.33
38912;BME280;28444;48.056;14.408;2023-06-04T01:06:39;97620.44;;;13.35;59.27
38912;BME280;28444;48.056;14.408;2023-06-04T01:09:26;97621.75;;;13.34;60.22
38912;BME280;28444;48.056;14.408;2023-06-04T01:12:14;97619.44;;;13.31;59.98
38912;BME280;28444;48.056;14.408;2023-06-04T01:15:01;97619.44;;;13.31;60.26
38912;BME280;28444;48.056;14.408;2023-06-04T01:17:52;97614.69;;;13.31;59.26
38912;BME280;28444;48.056;14.408;2023-06-04T01:20:44;97622.59;;;13.17;59.87
38912;BME280;28444;48.056;14.408;2023-06-04T01:24:00;97622.03;;;13.19;59.87
38912;BME280;28444;48.056;14.408;2023-06-04T01:26:48;97619.88;;;12.98;60.77
38912;BME280;28444;48.056;14.408;2023-06-04T01:29:36;97620.72;;;12.91;60.68
38912;BME280;28444;48.056;14.408;2023-06-04T01:32:24;97610.91;;;12.97;60.63
38912;BME280;28444;48.056;14.408;2023-06-04T01:35:11;97621.59;;;12.84;61.76
38912;BME280;28444;48.056;14.408;2023-06-04T01:37:59;97625.34;;;12.79;61.96
38912;BME280;28444;48.056;14.408;2023-06-04T01:40:46;97620.84;;;12.73;61.97
38912;BME280;28444;48.056;14.408;2023-06-04T01:43:33;97608.72;;;12.76;61.97
38912;BME280;28444;48.056;14.408;2023-06-04T01:46:22;97614.78;;;12.75;63.01
38912;BME280;28444;48.056;14.408;2023-06-04T01:49:11;97618.25;;;12.75;62.38
38912;BME280;28444;48.056;14.408;2023-06-04T01:51:57;97619.44;;;12.82;63.48
38912;BME280;28444;48.056;14.408;2023-06-04T01:54:44;97624.19;;;12.72;62.35
38912;BME280;28444;48.056;14.408;2023-06-04T01:57:33;97620.53;;;12.60;63.46
38912;BME280;28444;48.056;14.408;2023-06-04T02:00:20;97619.38;;;12.53;64.40
38912;BME280;28444;48.056;14.408;2023-06-04T02:03:07;97624.28;;;12.55;64.87
38912;BME280;28444;48.056;14.408;2023-06-04T02:05:55;97631.91;;;12.56;65.71
38912;BME280;28444;48.056;14.408;2023-06-04T02:08:42;97632.50;;;12.55;66.73
38912;BME280;28444;48.056;14.408;2023-06-04T02:11:29;97636.13;;;12.57;67.06
38912;BME280;28444;48.056;14.408;2023-06-04T02:14:16;97636.41;;;12.51;67.55
38912;BME280;28444;48.056;14.408;2023-06-04T02:17:03;97628.03;;;12.59;67.72
38912;BME280;28444;48.056;14.408;2023-06-04T02:19:51;97640.56;;;12.52;68.35
38912;BME280;28444;48.056;14.408;2023-06-04T02:22:38;97638.53;;;12.43;69.23
38912;BME280;28444;48.056;14.408;2023-06-04T02:25:24;97639.81;;;12.33;69.46
38912;BME280;28444;48.056;14.408;2023-06-04T02:28:12;97635.63;;;12.32;69.04
38912;BME280;28444;48.056;14.408;2023-06-04T02:30:59;97637.94;;;12.35;70.27
38912;BME280;28444;48.056;14.408;2023-06-04T02:33:46;97641.41;;;12.36;70.03
38912;BME280;28444;48.056;14.408;2023-06-04T02:36:33;97639.81;;;12.33;69.75
38912;BME280;28444;48.056;14.408;2023-06-04T02:39:20;97642.13;;;12.36;69.56
38912;BME280;28444;48.056;14.408;2023-06-04T02:42:07;97642.38;;;12.31;70.24
38912;BME280;28444;48.056;14.408;2023-06-04T02:44:55;97635.88;;;12.26;70.37
38912;BME280;28444;48.056;14.408;2023-06-04T02:47:41;97637.03;;;12.23;70.56
38912;BME280;28444;48.056;14.408;2023-06-04T02:50:28;97636.88;;;12.21;70.22
38912;BME280;28444;48.056;14.408;2023-06-04T02:53:15;97632.72;;;11.93;71.36
38912;BME280;28444;48.056;14.408;2023-06-04T02:56:02;97638.63;;;11.89;71.43
38912;BME280;28444;48.056;14.408;2023-06-04T02:58:53;97644.69;;;11.88;71.62
38912;BME280;28444;48.056;14.408;2023-06-04T03:01:42;97649.75;;;11.91;70.80
38912;BME280;28444;48.056;14.408;2023-06-04T03:04:30;97655.38;;;11.93;70.85
38912;BME280;28444;48.056;14.408;2023-06-04T03:07:21;97649.16;;;11.93;72.09
38912;BME280;28444;48.056;14.408;2023-06-04T03:10:10;97645.13;;;11.94;71.72
38912;BME280;28444;48.056;14.408;2023-06-04T03:12:57;97647.63;;;11.99;71.22
38912;BME280;28444;48.056;14.408;2023-06-04T03:15:44;97656.13;;;12.03;71.90
38912;BME280;28444;48.056;14.408;2023-06-04T03:18:33;97658.75;;;12.11;70.55
38912;BME280;28444;48.056;14.408;2023-06-04T03:21:20;97660.91;;;12.03;70.83
38912;BME280;28444;48.056;14.408;2023-06-04T03:24:07;97665.38;;;12.08;71.08
38912;BME280;28444;48.056;14.408;2023-06-04T03:26:54;97671.06;;;12.20;70.80
38912;BME280;28444;48.056;14.408;2023-06-04T03:29:41;97668.38;;;12.29;70.48
38912;BME280;28444;48.056;14.408;2023-06-04T03:32:28;97665.66;;;12.39;70.77
38912;BME280;28444;48.056;14.408;2023-06-04T03:35:15;97665.84;;;12.51;70.21
38912;BME280;28444;48.056;14.408;2023-06-04T03:38:02;97670.31;;;12.46;70.29
38912;BME280;28444;48.056;14.408;2023-06-04T03:40:49;97665.38;;;12.35;71.60
38912;BME280;28444;48.056;14.408;2023-06-04T03:43:36;97671.41;;;12.34;72.10
38912;BME280;28444;48.056;14.408;2023-06-04T03:46:23;97676.06;;;12.41;73.21
38912;BME280;28444;48.056;14.408;2023-06-04T03:49:16;97682.59;;;12.55;73.45
38912;BME280;28444;48.056;14.408;2023-06-04T03:52:05;97667.06;;;12.67;72.29
38912;BME280;28444;48.056;14.408;2023-06-04T03:54:52;97670.81;;;12.82;72.01
38912;BME280;28444;48.056;14.408;2023-06-04T03:57:38;97677.19;;;12.74;71.62
38912;BME280;28444;48.056;14.408;2023-06-04T04:00:26;97671.25;;;12.68;72.79
38912;BME280;28444;48.056;14.408;2023-06-04T04:03:13;97678.31;;;12.71;73.01
38912;BME280;28444;48.056;14.408;2023-06-04T04:06:00;97676.00;;;12.77;71.81
38912;BME280;28444;48.056;14.408;2023-06-04T04:08:47;97676.88;;;12.80;71.08
38912;BME280;28444;48.056;14.408;2023-06-04T04:11:35;97675.16;;;12.85;71.18
38912;BME280;28444;48.056;14.408;2023-06-04T04:14:22;97679.38;;;12.86;70.46
38912;BME280;28444;48.056;14.408;2023-06-04T04:17:09;97682.28;;;12.97;70.58
38912;BME280;28444;48.056;14.408;2023-06-04T04:19:56;97688.22;;;13.23;71.35
38912;BME280;28444;48.056;14.408;2023-06-04T04:22:43;97697.47;;;13.47;70.80
38912;BME280;28444;48.056;14.408;2023-06-04T04:25:29;97686.78;;;13.61;69.70
38912;BME280;28444;48.056;14.408;2023-06-04T04:28:19;97693.31;;;13.65;70.51
38912;BME280;28444;48.056;14.408;2023-06-04T04:31:06;97689.22;;;13.76;69.72
38912;BME280;28444;48.056;14.408;2023-06-04T04:33:55;97687.50;;;13.81;69.76
38912;BME280;28444;48.056;14.408;2023-06-04T04:36:43;97681.72;;;13.67;69.18
38912;BME280;28444;48.056;14.408;2023-06-04T04:39:30;97677.97;;;13.53;69.16
38912;BME280;28444;48.056;14.408;2023-06-04T04:42:19;97684.19;;;13.53;69.31
38912;BME280;28444;48.056;14.408;2023-06-04T04:45:07;97681.88;;;13.59;69.13
38912;BME280;28444;48.056;14.408;2023-06-04T04:47:54;97685.75;;;13.76;68.42
38912;BME280;28444;48.056;14.408;2023-06-04T04:50:41;97690.06;;;13.88;68.35
38912;BME280;28444;48.056;14.408;2023-06-04T04:53:28;97691.78;;;14.03;67.94
38912;BME280;28444;48.056;14.408;2023-06-04T04:56:15;97689.09;;;14.34;66.35
38912;BME280;28444;48.056;14.408;2023-06-04T04:59:02;97687.59;;;14.53;66.33
38912;BME280;28444;48.056;14.408;2023-06-04T05:01:49;97691.31;;;14.57;65.57
38912;BME280;28444;48.056;14.408;2023-06-04T05:04:36;97701.47;;;14.55;65.75
38912;BME280;28444;48.056;14.408;2023-06-04T05:07:23;97701.97;;;14.32;65.04
38912;BME280;28444;48.056;14.408;2023-06-04T05:10:11;97697.09;;;14.20;66.55
38912;BME280;28444;48.056;14.408;2023-06-04T05:13:00;97696.66;;;14.14;68.15
38912;BME280;28444;48.056;14.408;2023-06-04T05:15:51;97711.53;;;14.31;67.13
38912;BME280;28444;48.056;14.408;2023-06-04T05:18:41;97721.13;;;14.20;66.84
38912;BME280;28444;48.056;14.408;2023-06-04T05:21:31;97724.41;;;14.28;67.47
38912;BME280;28444;48.056;14.408;2023-06-04T05:24:18;97719.50;;;14.27;66.47
38912;BME280;28444;48.056;14.408;2023-06-04T05:27:05;97705.91;;;14.19;67.07
38912;BME280;28444;48.056;14.408;2023-06-04T05:29:51;97708.63;;;14.29;66.39
38912;BME280;28444;48.056;14.408;2023-06-04T05:32:38;97713.78;;;14.44;66.34
38912;BME280;28444;48.056;14.408;2023-06-04T05:35:28;97716.34;;;14.61;65.61
38912;BME280;28444;48.056;14.408;2023-06-04T05:38:15;97716.13;;;14.79;64.90
38912;BME280;28444;48.056;14.408;2023-06-04T05:41:12;97719.00;;;14.81;65.50
38912;BME280;28444;48.056;14.408;2023-06-04T05:43:59;97718.66;;;14.96;64.66
38912;BME280;28444;48.056;14.408;2023-06-04T05:46:46;97722.44;;;15.12;62.71
38912;BME280;28444;48.056;14.408;2023-06-04T05:49:34;97727.28;;;15.24;63.61
38912;BME280;28444;48.056;14.408;2023-06-04T05:52:21;97734.13;;;15.44;63.03
38912;BME280;28444;48.056;14.408;2023-06-04T05:55:08;97732.59;;;15.53;63.22
38912;BME280;28444;48.056;14.408;2023-06-04T05:57:55;97728.41;;;15.73;62.68
38912;BME280;28444;48.056;14.408;2023-06-04T06:00:42;97736.56;;;15.83;61.56
38912;BME280;28444;48.056;14.408;2023-06-04T06:03:29;97729.38;;;15.78;61.36
38912;BME280;28444;48.056;14.408;2023-06-04T06:06:17;97729.78;;;15.96;62.89
38912;BME280;28444;48.056;14.408;2023-06-04T06:09:05;97728.59;;;15.99;59.90
38912;BME280;28444;48.056;14.408;2023-06-04T06:11:52;97735.78;;;16.04;60.52
38912;BME280;28444;48.056;14.408;2023-06-04T06:14:39;97736.56;;;16.16;58.95
38912;BME280;28444;48.056;14.408;2023-06-04T06:17:26;97728.63;;;16.22;59.51
38912;BME280;28444;48.056;14.408;2023-06-04T06:20:13;97733.34;;;16.55;59.44
38912;BME280;28444;48.056;14.408;2023-06-04T06:23:07;97737.81;;;16.83;58.92
38912;BME280;28444;48.056;14.408;2023-06-04T06:25:54;97731.81;;;16.87;56.81
38912;BME280;28444;48.056;14.408;2023-06-04T06:28:42;97740.19;;;17.13;56.94
38912;BME280;28444;48.056;14.408;2023-06-04T06:31:30;97740.97;;;17.39;55.96
38912;BME280;28444;48.056;14.408;2023-06-04T06:34:17;97731.31;;;17.51;54.79
38912;BME280;28444;48.056;14.408;2023-06-04T06:37:04;97733.75;;;17.71;55.22
38912;BME280;28444;48.056;14.408;2023-06-04T06:39:51;97729.38;;;17.91;53.85
38912;BME280;28444;48.056;14.408;2023-06-04T06:42:38;97739.75;;;18.04;53.41
38912;BME280;28444;48.056;14.408;2023-06-04T06:45:25;97737.16;;;17.95;51.58
38912;BME280;28444;48.056;14.408;2023-06-04T06:48:12;97740.81;;;17.86;55.11
38912;BME280;28444;48.056;14.408;2023-06-04T06:50:59;97740.72;;;17.84;53.85
38912;BME280;28444;48.056;14.408;2023-06-04T06:53:45;97746.03;;;17.68;52.63
38912;BME280;28444;48.056;14.408;2023-06-04T06:56:32;97764.91;;;17.22;52.52
38912;BME280;28444;48.056;14.408;2023-06-04T06:59:20;97754.50;;;16.97;53.79
38912;BME280;28444;48.056;14.408;2023-06-04T07:02:07;97761.22;;;16.82;55.21
38912;BME280;28444;48.056;14.408;2023-06-04T07:04:54;97761.31;;;16.61;54.75
38912;BME280;28444;48.056;14.408;2023-06-04T07:07:41;97768.25;;;16.39;53.97
38912;BME280;28444;48.056;14.408;2023-06-04T07:10:29;97764.53;;;16.34;53.89
38912;BME280;28444;48.056;14.408;2023-06-04T07:13:16;97771.75;;;16.39;54.95
38912;BME280;28444;48.056;14.408;2023-06-04T07:16:03;97770.16;;;16.36;56.32
38912;BME280;28444;48.056;14.408;2023-06-04T07:18:50;97773.16;;;16.28;55.99
38912;BME280;28444;48.056;14.408;2023-06-04T07:21:37;97766.91;;;16.28;55.72
38912;BME280;28444;48.056;14.408;2023-06-04T07:24:24;97769.19;;;16.20;57.23
38912;BME280;28444;48.056;14.408;2023-06-04T07:27:14;97761.03;;;16.22;56.67
38912;BME280;28444;48.056;14.408;2023-06-04T07:30:01;97765.97;;;16.23;56.35
38912;BME280;28444;48.056;14.408;2023-06-04T07:32:48;97771.25;;;16.31;56.20
38912;BME280;28444;48.056;14.408;2023-06-04T07:35:35;97782.75;;;16.27;56.75
38912;BME280;28444;48.056;14.408;2023-06-04T07:38:22;97780.72;;;16.28;56.17
38912;BME280;28444;48.056;14.408;2023-06-04T07:41:12;97776.06;;;16.42;56.71
38912;BME280;28444;48.056;14.408;2023-06-04T07:43:59;97781.09;;;16.46;57.06
38912;BME280;28444;48.056;14.408;2023-06-04T07:46:46;97780.88;;;16.65;56.77
38912;BME280;28444;48.056;14.408;2023-06-04T07:49:33;97771.09;;;16.86;57.50
38912;BME280;28444;48.056;14.408;2023-06-04T07:52:20;97777.03;;;17.17;55.46
38912;BME280;28444;48.056;14.408;2023-06-04T07:55:07;97769.13;;;17.61;55.09
38912;BME280;28444;48.056;14.408;2023-06-04T07:57:55;97771.69;;;17.94;54.41
38912;BME280;28444;48.056;14.408;2023-06-04T08:00:42;97769.31;;;18.14;53.74
38912;BME280;28444;48.056;14.408;2023-06-04T08:03:28;97777.81;;;18.57;55.72
38912;BME280;28444;48.056;14.408;2023-06-04T08:06:16;97775.88;;;18.60;50.53
38912;BME280;28444;48.056;14.408;2023-06-04T08:09:03;97782.50;;;18.80;51.86
38912;BME280;28444;48.056;14.408;2023-06-04T08:11:50;97792.25;;;19.09;50.83
38912;BME280;28444;48.056;14.408;2023-06-04T08:14:36;97778.28;;;19.34;49.84
38912;BME280;28444;48.056;14.408;2023-06-04T08:17:24;97779.78;;;19.51;52.26
38912;BME280;28444;48.056;14.408;2023-06-04T08:20:11;97785.00;;;19.59;49.03
38912;BME280;28444;48.056;14.408;2023-06-04T08:22:58;97784.72;;;19.53;50.89
38912;BME280;28444;48.056;14.408;2023-06-04T08:25:45;97784.94;;;19.43;51.47
38912;BME280;28444;48.056;14.408;2023-06-04T08:28:32;97786.81;;;19.24;52.69
38912;BME280;28444;48.056;14.408;2023-06-04T08:31:19;97787.22;;;19.19;50.98
38912;BME280;28444;48.056;14.408;2023-06-04T08:34:06;97797.16;;;19.38;53.02
38912;BME280;28444;48.056;14.408;2023-06-04T08:36:53;97791.84;;;19.28;51.87
38912;BME280;28444;48.056;14.408;2023-06-04T08:39:40;97794.00;;;19.16;53.83
38912;BME280;28444;48.056;14.408;2023-06-04T08:42:30;97792.13;;;19.20;53.54
38912;BME280;28444;48.056;14.408;2023-06-04T08:45:19;97799.66;;;19.18;50.20
38912;BME280;28444;48.056;14.408;2023-06-04T08:48:09;97800.56;;;19.09;49.69
38912;BME280;28444;48.056;14.408;2023-06-04T08:50:59;97798.53;;;18.95;52.34
38912;BME280;28444;48.056;14.408;2023-06-04T08:53:46;97800.25;;;18.89;52.68
38912;BME280;28444;48.056;14.408;2023-06-04T08:56:36;97792.34;;;18.97;52.89
38912;BME280;28444;48.056;14.408;2023-06-04T08:59:25;97803.25;;;19.07;51.96
38912;BME280;28444;48.056;14.408;2023-06-04T09:02:15;97802.63;;;19.08;51.62
38912;BME280;28444;48.056;14.408;2023-06-04T09:05:05;97804.47;;;18.90;50.89
38912;BME280;28444;48.056;14.408;2023-06-04T09:08:00;97811.63;;;18.95;51.65
38912;BME280;28444;48.056;14.408;2023-06-04T09:10:48;97809.06;;;18.85;51.44
38912;BME280;28444;48.056;14.408;2023-06-04T09:13:38;97803.03;;;18.49;51.48
38912;BME280;28444;48.056;14.408;2023-06-04T09:16:26;97814.13;;;18.24;51.17
38912;BME280;28444;48.056;14.408;2023-06-04T09:19:14;97811.63;;;18.42;54.76
38912;BME280;28444;48.056;14.408;2023-06-04T09:22:01;97817.47;;;18.48;52.63
38912;BME280;28444;48.056;14.408;2023-06-04T09:24:49;97812.44;;;18.44;52.19
38912;BME280;28444;48.056;14.408;2023-06-04T09:27:38;97809.25;;;18.36;52.34
38912;BME280;28444;48.056;14.408;2023-06-04T09:30:26;97816.22;;;18.37;52.36
38912;BME280;28444;48.056;14.408;2023-06-04T09:33:13;97808.25;;;18.43;52.57
38912;BME280;28444;48.056;14.408;2023-06-04T09:36:00;97809.25;;;18.36;53.52
38912;BME280;28444;48.056;14.408;2023-06-04T09:38:47;97813.56;;;18.39;52.93
38912;BME280;28444;48.056;14.408;2023-06-04T09:41:34;97813.28;;;18.21;53.09
38912;BME280;28444;48.056;14.408;2023-06-04T09:44:21;97813.41;;;18.23;52.83
38912;BME280;28444;48.056;14.408;2023-06-04T09:47:08;97810.06;;;18.39;53.14
38912;BME280;28444;48.056;14.408;2023-06-04T09:49:55;97806.50;;;18.50;52.34
38912;BME280;28444;48.056;14.408;2023-06-04T09:52:42;97804.09;;;18.70;51.43
38912;BME280;28444;48.056;14.408;2023-06-04T09:55:29;97803.53;;;18.85;52.27
38912;BME280;28444;48.056;14.408;2023-06-04T09:58:16;97795.34;;;19.01;50.45
38912;BME280;28444;48.056;14.408;2023-06-04T10:01:05;97806.63;;;19.05;52.03
38912;BME280;28444;48.056;14.408;2023-06-04T10:03:53;97802.09;;;18.84;52.10
38912;BME280;28444;48.056;14.408;2023-06-04T10:06:42;97807.44;;;18.94;57.39
38912;BME280;28444;48.056;14.408;2023-06-04T10:09:29;97802.81;;;19.12;53.18
38912;BME280;28444;48.056;14.408;2023-06-04T10:12:25;97802.22;;;19.14;54.71
38912;BME280;28444;48.056;14.408;2023-06-04T10:15:13;97803.13;;;19.18;54.35
38912;BME280;28444;48.056;14.408;2023-06-04T10:18:02;97797.78;;;19.36;54.26
38912;BME280;28444;48.056;14.408;2023-06-04T10:20:49;97803.59;;;19.56;53.09
38912;BME280;28444;48.056;14.408;2023-06-04T10:23:37;97794.97;;;19.64;51.53
38912;BME280;28444;48.056;14.408;2023-06-04T10:26:25;97795.75;;;19.94;52.31
38912;BME280;28444;48.056;14.408;2023-06-04T10:29:12;97795.41;;;19.72;51.38
38912;BME280;28444;48.056;14.408;2023-06-04T10:32:01;97799.75;;;19.91;51.21
38912;BME280;28444;48.056;14.408;2023-06-04T10:34:48;97791.06;;;20.28;52.01
38912;BME280;28444;48.056;14.408;2023-06-04T10:37:36;97791.44;;;20.36;50.75
38912;BME280;28444;48.056;14.408;2023-06-04T10:40:32;97788.25;;;20.58;49.77
38912;BME280;28444;48.056;14.408;2023-06-04T10:43:20;97795.44;;;20.33;49.81
38912;BME280;28444;48.056;14.408;2023-06-04T10:46:15;97788.75;;;20.23;51.07
38912;BME280;28444;48.056;14.408;2023-06-04T10:49:02;97786.78;;;20.41;51.01
38912;BME280;28444;48.056;14.408;2023-06-04T10:51:49;97783.56;;;20.31;49.41
38912;BME280;28444;48.056;14.408;2023-06-04T10:54:39;97784.47;;;20.51;49.39
38912;BME280;28444;48.056;14.408;2023-06-04T10:57:25;97789.78;;;20.61;49.21
38912;BME280;28444;48.056;14.408;2023-06-04T11:00:13;97790.78;;;20.67;50.94
38912;BME280;28444;48.056;14.408;2023-06-04T11:03:01;97787.16;;;20.97;52.24
38912;BME280;28444;48.056;14.408;2023-06-04T11:05:48;97788.06;;;21.01;47.69
38912;BME280;28444;48.056;14.408;2023-06-04T11:08:37;97786.28;;;20.92;48.70
38912;BME280;28444;48.056;14.408;2023-06-04T11:11:27;97781.56;;;21.12;49.00
38912;BME280;28444;48.056;14.408;2023-06-04T11:14:14;97781.75;;;21.16;48.64
38912;BME280;28444;48.056;14.408;2023-06-04T11:17:11;97786.16;;;21.22;49.47
38912;BME280;28444;48.056;14.408;2023-06-04T11:19:58;97785.59;;;21.25;47.43
38912;BME280;28444;48.056;14.408;2023-06-04T11:22:51;97786.53;;;21.48;49.10
38912;BME280;28444;48.056;14.408;2023-06-04T11:25:39;97787.03;;;21.26;47.59
38912;BME280;28444;48.056;14.408;2023-06-04T11:28:26;97785.75;;;21.29;48.23
38912;BME280;28444;48.056;14.408;2023-06-04T11:31:13;97779.13;;;21.36;48.70
38912;BME280;28444;48.056;14.408;2023-06-04T11:34:00;97771.63;;;21.57;50.16
38912;BME280;28444;48.056;14.408;2023-06-04T11:36:47;97770.75;;;21.70;49.71
38912;BME280;28444;48.056;14.408;2023-06-04T11:39:37;97772.75;;;21.85;48.26
38912;BME280;28444;48.056;14.408;2023-06-04T11:42:27;97771.22;;;21.47;48.00
38912;BME280;28444;48.056;14.408;2023-06-04T11:45:20;97766.63;;;21.53;49.29
38912;BME280;28444;48.056;14.408;2023-06-04T11:48:10;97763.84;;;21.53;49.01
38912;BME280;28444;48.056;14.408;2023-06-04T11:50:57;97759.16;;;21.58;48.94
38912;BME280;28444;48.056;14.408;2023-06-04T11:53:45;97761.53;;;21.83;49.39
38912;BME280;28444;48.056;14.408;2023-06-04T11:56:32;97756.78;;;21.86;49.04
38912;BME280;28444;48.056;14.408;2023-06-04T11:59:19;97751.19;;;22.04;49.14
38912;BME280;28444;48.056;14.408;2023-06-04T12:02:07;97747.28;;;22.29;50.42
38912;BME280;28444;48.056;14.408;2023-06-04T12:04:54;97752.94;;;22.31;50.21
38912;BME280;28444;48.056;14.408;2023-06-04T12:07:41;97748.16;;;22.33;48.30
38912;BME280;28444;48.056;14.408;2023-06-04T12:10:28;97745.06;;;22.25;48.75
38912;BME280;28444;48.056;14.408;2023-06-04T12:13:15;97736.22;;;22.51;49.82
38912;BME280;28444;48.056;14.408;2023-06-04T12:16:02;97744.81;;;22.57;49.90
38912;BME280;28444;48.056;14.408;2023-06-04T12:18:49;97738.88;;;22.47;47.24
38912;BME280;28444;48.056;14.408;2023-06-04T12:21:39;97741.94;;;22.35;48.64
38912;BME280;28444;48.056;14.408;2023-06-04T12:24:26;97744.03;;;22.17;50.15
38912;BME280;28444;48.056;14.408;2023-06-04T12:27:13;97739.72;;;22.14;49.90
38912;BME280;28444;48.056;14.408;2023-06-04T12:30:02;97734.09;;;22.11;49.08
38912;BME280;28444;48.056;14.408;2023-06-04T12:32:49;97728.66;;;22.33;48.60
38912;BME280;28444;48.056;14.408;2023-06-04T12:35:37;97728.53;;;22.49;47.52
38912;BME280;28444;48.056;14.408;2023-06-04T12:38:24;97724.81;;;22.43;47.79
38912;BME280;28444;48.056;14.408;2023-06-04T12:41:11;97724.56;;;22.37;48.38
38912;BME280;28444;48.056;14.408;2023-06-04T12:43:58;97721.28;;;22.22;47.78
38912;BME280;28444;48.056;14.408;2023-06-04T12:46:46;97724.84;;;22.25;49.88
38912;BME280;28444;48.056;14.408;2023-06-04T12:49:34;97727.44;;;22.19;49.05
38912;BME280;28444;48.056;14.408;2023-06-04T12:52:21;97721.59;;;22.13;49.44
38912;BME280;28444;48.056;14.408;2023-06-04T12:55:08;97727.16;;;22.30;51.25
38912;BME280;28444;48.056;14.408;2023-06-04T12:57:55;97726.22;;;21.88;48.17
38912;BME280;28444;48.056;14.408;2023-06-04T13:00:42;97730.84;;;21.63;48.89
38912;BME280;28444;48.056;14.408;2023-06-04T13:03:30;97726.47;;;21.58;49.40
38912;BME280;28444;48.056;14.408;2023-06-04T13:06:17;97724.16;;;21.71;49.75
38912;BME280;28444;48.056;14.408;2023-06-04T13:09:05;97724.47;;;21.97;51.24
38912;BME280;28444;48.056;14.408;2023-06-04T13:11:58;97723.53;;;22.08;49.56
38912;BME280;28444;48.056;14.408;2023-06-04T13:14:45;97723.56;;;22.10;49.79
38912;BME280;28444;48.056;14.408;2023-06-04T13:17:32;97715.56;;;22.18;50.78
38912;BME280;28444;48.056;14.408;2023-06-04T13:20:20;97719.84;;;22.21;50.69
38912;BME280;28444;48.056;14.408;2023-06-04T13:23:07;97711.50;;;22.21;49.66
38912;BME280;28444;48.056;14.408;2023-06-04T13:25:54;97713.84;;;22.29;50.92
38912;BME280;28444;48.056;14.408;2023-06-04T13:28:41;97711.09;;;22.49;51.10
38912;BME280;28444;48.056;14.408;2023-06-04T13:31:28;97715.81;;;22.64;49.66
38912;BME280;28444;48.056;14.408;2023-06-04T13:34:15;97708.44;;;22.73;50.36
38912;BME280;28444;48.056;14.408;2023-06-04T13:37:08;97712.25;;;22.81;50.40
38912;BME280;28444;48.056;14.408;2023-06-04T13:39:58;97704.59;;;23.02;51.98
38912;BME280;28444;48.056;14.408;2023-06-04T13:42:45;97700.47;;;23.25;51.78
38912;BME280;28444;48.056;14.408;2023-06-04T13:45:32;97701.06;;;23.43;49.83
38912;BME280;28444;48.056;14.408;2023-06-04T13:48:20;97697.09;;;23.50;49.85
38912;BME280;28444;48.056;14.408;2023-06-04T13:51:07;97696.44;;;23.52;49.02
38912;BME280;28444;48.056;14.408;2023-06-04T13:53:54;97692.03;;;23.45;49.25
38912;BME280;28444;48.056;14.408;2023-06-04T13:56:47;97694.78;;;23.43;49.75
38912;BME280;28444;48.056;14.408;2023-06-04T13:59:36;97699.09;;;23.48;48.94
38912;BME280;28444;48.056;14.408;2023-06-04T14:02:22;97696.28;;;23.46;48.92
38912;BME280;28444;48.056;14.408;2023-06-04T14:05:09;97700.28;;;23.41;48.20
38912;BME280;28444;48.056;14.408;2023-06-04T14:07:56;97700.06;;;23.35;48.33
38912;BME280;28444;48.056;14.408;2023-06-04T14:10:44;97695.47;;;23.43;50.21
38912;BME280;28444;48.056;14.408;2023-06-04T14:13:31;97700.22;;;23.39;48.37
38912;BME280;28444;48.056;14.408;2023-06-04T14:16:18;97693.53;;;23.48;47.97
38912;BME280;28444;48.056;14.408;2023-06-04T14:19:05;97695.03;;;23.51;48.51
38912;BME280;28444;48.056;14.408;2023-06-04T14:21:55;97696.53;;;23.54;49.42
38912;BME280;28444;48.056;14.408;2023-06-04T14:24:42;97698.72;;;23.58;48.04
38912;BME280;28444;48.056;14.408;2023-06-04T14:27:29;97685.28;;;23.52;48.03
38912;BME280;28444;48.056;14.408;2023-06-04T14:30:16;97692.00;;;23.43;48.18
38912;BME280;28444;48.056;14.408;2023-06-04T14:33:03;97693.59;;;23.50;49.70
38912;BME280;28444;48.056;14.408;2023-06-04T14:35:50;97679.53;;;23.46;47.91
38912;BME280;28444;48.056;14.408;2023-06-04T14:38:37;97682.38;;;23.48;49.07